createdAt,value
2019-02-14T00:00:54.131Z,99.90
2019-02-14T00:03:22.658Z,99.90
2019-02-14T00:05:51.116Z,99.90
2019-02-14T00:08:19.669Z,99.90
2019-02-14T00:10:48.203Z,99.90
2019-02-14T00:13:16.734Z,99.90
2019-02-14T00:15:45.278Z,99.90
2019-02-14T00:18:13.809Z,99.90
2019-02-14T00:20:42.337Z,99.90
2019-02-14T00:23:10.956Z,99.90
2019-02-14T00:25:39.487Z,99.90
2019-02-14T00:28:07.939Z,99.90
2019-02-14T00:30:36.486Z,99.90
2019-02-14T00:33:04.946Z,99.90
2019-02-14T00:35:33.833Z,99.90
2019-02-14T00:38:02.391Z,99.90
2019-02-14T00:40:30.918Z,99.90
2019-02-14T00:42:59.446Z,99.90
2019-02-14T00:45:28.203Z,99.90
2019-02-14T00:47:56.720Z,99.90
2019-02-14T00:50:25.254Z,99.90
2019-02-14T00:52:53.734Z,99.90
2019-02-14T00:55:22.260Z,99.90
2019-02-14T00:57:51.106Z,99.90
2019-02-14T01:00:19.675Z,99.90
2019-02-14T01:02:48.203Z,99.90
2019-02-14T01:05:16.747Z,99.90
2019-02-14T01:07:45.300Z,99.90
2019-02-14T01:10:13.963Z,99.90
2019-02-14T01:12:42.499Z,99.90
2019-02-14T01:15:11.187Z,99.90
2019-02-14T01:17:39.646Z,99.90
2019-02-14T01:20:08.380Z,99.90
2019-02-14T01:22:36.935Z,99.90
2019-02-14T01:25:06.487Z,99.90
2019-02-14T01:27:35.083Z,99.90
2019-02-14T01:30:04.577Z,99.90
2019-02-14T01:32:33.178Z,99.90
2019-02-14T01:35:01.633Z,99.90
2019-02-14T01:37:30.187Z,99.90
2019-02-14T01:39:58.723Z,99.90
2019-02-14T01:42:27.246Z,99.90
2019-02-14T01:44:55.796Z,99.90
2019-02-14T01:47:24.671Z,99.90
2019-02-14T01:49:53.222Z,99.90
2019-02-14T01:52:21.755Z,99.90
2019-02-14T01:54:50.217Z,99.90
2019-02-14T01:57:18.766Z,99.90
2019-02-14T01:59:47.221Z,99.90
2019-02-14T02:02:15.756Z,99.90
2019-02-14T02:04:44.303Z,99.90
2019-02-14T02:07:12.835Z,99.90
2019-02-14T02:09:41.370Z,99.90
2019-02-14T02:12:10.092Z,99.90
2019-02-14T02:14:38.617Z,99.90
2019-02-14T02:17:07.169Z,99.90
2019-02-14T02:19:35.764Z,99.90
2019-02-14T02:22:04.314Z,99.90
2019-02-14T02:24:32.771Z,99.90
2019-02-14T02:27:01.319Z,99.90
2019-02-14T02:29:29.851Z,99.90
2019-02-14T02:31:58.384Z,99.90
2019-02-14T02:34:26.934Z,99.90
2019-02-14T02:36:55.460Z,99.90
2019-02-14T02:39:24.019Z,99.90
2019-02-14T02:41:52.545Z,99.90
2019-02-14T02:44:21.079Z,99.90
2019-02-14T02:46:49.633Z,99.90
2019-02-14T02:49:18.154Z,99.90
2019-02-14T02:51:46.694Z,99.90
2019-02-14T02:54:15.239Z,99.90
2019-02-14T02:56:43.776Z,99.90
2019-02-14T02:59:14.183Z,99.90
2019-02-14T03:01:42.642Z,99.90
2019-02-14T03:04:11.172Z,99.90
2019-02-14T03:06:39.775Z,99.90
2019-02-14T03:09:08.334Z,99.90
2019-02-14T03:11:36.865Z,99.90
2019-02-14T03:14:05.464Z,99.90
2019-02-14T03:16:34.015Z,99.90
2019-02-14T03:19:02.479Z,99.90
2019-02-14T03:21:31.014Z,99.90
2019-02-14T03:23:59.564Z,99.90
2019-02-14T03:26:28.162Z,99.90
2019-02-14T03:28:56.713Z,99.90
2019-02-14T03:31:25.173Z,99.90
2019-02-14T03:33:53.703Z,99.90
2019-02-14T03:36:22.182Z,99.90
2019-02-14T03:38:50.639Z,99.90
2019-02-14T03:41:19.166Z,99.90
2019-02-14T03:43:47.786Z,99.90
2019-02-14T03:46:16.238Z,99.90
2019-02-14T03:48:44.768Z,99.90
2019-02-14T03:51:13.391Z,99.90
2019-02-14T03:53:41.918Z,99.90
2019-02-14T03:56:10.471Z,99.90
2019-02-14T03:58:39.005Z,99.90
2019-02-14T04:01:07.551Z,99.90
2019-02-14T04:03:36.154Z,99.90
2019-02-14T04:06:04.699Z,99.90
2019-02-14T04:08:33.294Z,99.90
2019-02-14T04:11:01.829Z,99.90
2019-02-14T04:13:30.371Z,99.90
2019-02-14T04:15:58.899Z,99.90
2019-02-14T04:18:27.431Z,99.90
2019-02-14T04:20:55.982Z,99.90
2019-02-14T04:23:24.518Z,99.90
2019-02-14T04:25:53.049Z,99.90
2019-02-14T04:28:21.598Z,99.90
2019-02-14T04:30:50.135Z,99.90
2019-02-14T04:33:18.682Z,99.90
2019-02-14T04:35:47.142Z,99.90
2019-02-14T04:38:15.670Z,99.90
2019-02-14T04:40:44.146Z,99.90
2019-02-14T04:43:12.678Z,99.90
2019-02-14T04:45:41.229Z,99.90
2019-02-14T04:48:09.754Z,99.90
2019-02-14T04:50:38.207Z,99.90
2019-02-14T04:53:06.771Z,99.90
2019-02-14T04:55:35.299Z,99.90
2019-02-14T04:58:03.831Z,99.90
2019-02-14T05:00:32.370Z,99.90
2019-02-14T05:03:00.828Z,99.90
2019-02-14T05:05:29.354Z,99.90
2019-02-14T05:07:57.899Z,99.90
2019-02-14T05:10:26.431Z,99.90
2019-02-14T05:12:54.954Z,99.90
2019-02-14T05:15:23.426Z,99.90
2019-02-14T05:17:51.879Z,99.90
2019-02-14T05:20:20.422Z,99.90
2019-02-14T05:22:48.950Z,99.90
2019-02-14T05:25:17.399Z,99.90
2019-02-14T05:27:46.014Z,99.90
2019-02-14T05:30:18.532Z,99.90
2019-02-14T05:32:47.059Z,99.90
2019-02-14T05:35:15.603Z,99.90
2019-02-14T05:37:44.130Z,99.90
2019-02-14T05:40:12.803Z,99.90
2019-02-14T05:42:41.385Z,99.90
2019-02-14T05:45:11.714Z,99.90
2019-02-14T05:47:40.240Z,99.90
2019-02-14T05:50:11.910Z,99.90
2019-02-14T05:52:40.466Z,99.90
2019-02-14T05:55:10.854Z,99.90
2019-02-14T05:57:39.453Z,99.90
2019-02-14T06:00:11.191Z,99.90
2019-02-14T06:02:39.717Z,99.90
2019-02-14T06:05:08.323Z,99.90
2019-02-14T06:07:36.781Z,99.90
2019-02-14T06:10:08.270Z,99.90
2019-02-14T06:12:36.807Z,99.90
2019-02-14T06:15:10.836Z,99.90
2019-02-14T06:17:39.368Z,99.90
2019-02-14T06:20:10.047Z,99.90
2019-02-14T06:22:38.574Z,99.90
2019-02-14T06:25:11.676Z,99.90
2019-02-14T06:27:40.205Z,99.90
2019-02-14T06:30:11.964Z,99.90
2019-02-14T06:32:40.494Z,99.90
2019-02-14T06:35:10.594Z,99.90
2019-02-14T06:37:39.143Z,99.90
2019-02-14T06:40:10.310Z,99.90
2019-02-14T06:42:38.860Z,99.90
2019-02-14T06:45:12.779Z,99.90
2019-02-14T06:47:41.332Z,99.90
2019-02-14T06:50:10.463Z,99.90
2019-02-14T06:52:40.386Z,99.90
2019-02-14T06:55:10.103Z,99.90
2019-02-14T06:57:38.626Z,99.90
2019-02-14T07:00:13.179Z,99.90
2019-02-14T07:02:41.722Z,99.90
2019-02-14T07:05:10.790Z,99.90
2019-02-14T07:07:39.689Z,99.90
2019-02-14T07:10:09.979Z,99.90
2019-02-14T07:12:38.512Z,99.90
2019-02-14T07:15:12.059Z,99.90
2019-02-14T07:17:40.515Z,99.90
2019-02-14T07:20:16.866Z,99.90
2019-02-14T07:22:45.398Z,99.90
2019-02-14T07:25:13.989Z,99.90
2019-02-14T07:27:42.612Z,99.90
2019-02-14T07:30:14.251Z,99.90
2019-02-14T07:32:42.802Z,99.90
2019-02-14T07:35:11.406Z,99.90
2019-02-14T07:37:39.944Z,99.90
2019-02-14T07:40:11.331Z,99.90
2019-02-14T07:42:39.930Z,99.90
2019-02-14T07:45:11.028Z,99.90
2019-02-14T07:47:39.650Z,99.90
2019-02-14T07:50:11.092Z,99.90
2019-02-14T07:52:39.706Z,99.90
2019-02-14T07:55:12.500Z,99.90
2019-02-14T07:57:41.247Z,99.90
2019-02-14T08:00:15.163Z,99.90
2019-02-14T08:02:43.615Z,99.90
2019-02-14T08:05:12.283Z,99.90
2019-02-14T08:07:40.895Z,99.90
2019-02-14T08:10:14.909Z,99.90
2019-02-14T08:12:43.429Z,99.90
2019-02-14T08:15:13.623Z,99.90
2019-02-14T08:17:42.177Z,99.90
2019-02-14T08:20:21.296Z,99.90
2019-02-14T08:22:49.827Z,99.90
2019-02-14T08:25:18.437Z,99.90
2019-02-14T08:27:46.966Z,99.90
2019-02-14T08:30:19.464Z,99.90
2019-02-14T08:32:48.021Z,99.90
2019-02-14T08:35:16.549Z,99.90
2019-02-14T08:37:46.155Z,99.90
2019-02-14T08:40:25.682Z,99.90
2019-02-14T08:42:54.300Z,99.90
2019-02-14T08:45:22.822Z,99.90
2019-02-14T08:47:51.300Z,99.90
2019-02-14T08:50:19.900Z,99.90
2019-02-14T08:52:48.483Z,99.90
2019-02-14T08:55:17.103Z,99.90
2019-02-14T08:57:45.629Z,99.90
2019-02-14T09:00:15.809Z,99.90
2019-02-14T09:02:44.336Z,99.90
2019-02-14T09:05:13.182Z,99.90
2019-02-14T09:07:41.792Z,99.90
2019-02-14T09:10:12.853Z,99.90
2019-02-14T09:12:41.451Z,99.90
2019-02-14T09:15:11.939Z,99.90
2019-02-14T09:17:40.473Z,99.90
2019-02-14T09:20:19.321Z,99.90
2019-02-14T09:22:47.839Z,99.90
2019-02-14T09:25:16.290Z,99.90
2019-02-14T09:27:44.779Z,99.90
2019-02-14T09:30:14.431Z,99.90
2019-02-14T09:32:43.199Z,99.90
2019-02-14T09:35:11.879Z,99.90
2019-02-14T09:37:40.334Z,99.90
2019-02-14T09:40:11.864Z,99.90
2019-02-14T09:42:40.408Z,99.90
2019-02-14T09:45:11.281Z,99.90
2019-02-14T09:47:39.812Z,99.90
2019-02-14T09:50:13.650Z,99.90
2019-02-14T09:52:42.376Z,99.90
2019-02-14T09:55:12.457Z,99.90
2019-02-14T09:57:41.127Z,99.90
2019-02-14T10:00:12.470Z,99.90
2019-02-14T10:02:40.987Z,99.90
2019-02-14T10:05:10.839Z,99.90
2019-02-14T10:07:39.468Z,99.20
2019-02-14T10:10:19.876Z,99.30
2019-02-14T10:12:48.411Z,99.90
2019-02-14T10:15:16.866Z,99.60
2019-02-14T10:17:45.383Z,98.60
2019-02-14T10:20:17.574Z,96.50
2019-02-14T10:22:46.086Z,95.80
2019-02-14T10:25:14.746Z,95.70
2019-02-14T10:27:43.351Z,94.10
2019-02-14T10:30:19.992Z,93.80
2019-02-14T10:32:48.543Z,95.50
2019-02-14T10:35:17.133Z,95.00
2019-02-14T10:37:45.790Z,93.90
2019-02-14T10:40:16.357Z,92.00
2019-02-14T10:42:44.970Z,90.40
2019-02-14T10:45:16.103Z,90.50
2019-02-14T10:47:44.631Z,90.60
2019-02-14T10:50:13.309Z,91.00
2019-02-14T10:52:41.842Z,90.50
2019-02-14T10:55:14.970Z,88.70
2019-02-14T10:57:43.567Z,88.00
2019-02-14T11:00:21.217Z,81.60
2019-02-14T11:02:50.079Z,79.60
2019-02-14T11:05:19.326Z,80.70
2019-02-14T11:07:47.816Z,80.90
2019-02-14T11:10:16.982Z,78.60
2019-02-14T11:12:45.652Z,76.70
2019-02-14T11:15:24.962Z,77.50
2019-02-14T11:17:53.558Z,74.40
2019-02-14T11:20:22.081Z,74.40
2019-02-14T11:22:50.626Z,73.60
2019-02-14T11:25:28.261Z,73.60
2019-02-14T11:27:56.799Z,71.50
2019-02-14T11:30:25.586Z,71.40
2019-02-14T11:32:54.063Z,73.10
2019-02-14T11:35:22.655Z,75.30
2019-02-14T11:37:51.178Z,74.70
2019-02-14T11:40:19.654Z,73.70
2019-02-14T11:42:48.175Z,73.50
2019-02-14T11:45:24.147Z,72.60
2019-02-14T11:47:52.753Z,71.30
2019-02-14T11:50:21.302Z,68.40
2019-02-14T11:52:49.842Z,68.60
2019-02-14T11:55:18.431Z,66.30
2019-02-14T11:57:46.967Z,64.50
2019-02-14T12:00:24.739Z,66.60
2019-02-14T12:02:56.062Z,65.30
2019-02-14T12:05:23.619Z,62.60
2019-02-14T12:07:52.229Z,65.90
2019-02-14T12:10:20.838Z,64.20
2019-02-14T12:12:49.300Z,63.20
2019-02-14T12:15:17.891Z,61.10
2019-02-14T12:17:46.439Z,60.00
2019-02-14T12:20:15.947Z,61.00
2019-02-14T12:22:46.524Z,60.30
2019-02-14T12:25:17.648Z,59.50
2019-02-14T12:27:46.245Z,59.30
2019-02-14T12:30:16.374Z,58.90
2019-02-14T12:32:44.928Z,60.10
2019-02-14T12:35:13.590Z,59.60
2019-02-14T12:37:42.188Z,58.20
2019-02-14T12:40:12.183Z,57.80
2019-02-14T12:42:40.702Z,59.00
2019-02-14T12:45:20.348Z,57.90
2019-02-14T12:47:42.711Z,56.70
2019-02-14T12:50:11.387Z,54.70
2019-02-14T12:52:39.911Z,53.60
2019-02-14T12:55:08.598Z,53.40
2019-02-14T12:57:37.114Z,53.80
2019-02-14T13:00:11.783Z,54.10
2019-02-14T13:02:40.320Z,54.50
2019-02-14T13:05:09.322Z,54.60
2019-02-14T13:07:37.886Z,56.70
2019-02-14T13:10:09.523Z,56.60
2019-02-14T13:12:38.071Z,55.00
2019-02-14T13:15:10.011Z,54.80
2019-02-14T13:17:38.574Z,54.70
2019-02-14T13:20:08.375Z,55.90
2019-02-14T13:22:36.865Z,56.10
2019-02-14T13:25:08.624Z,55.80
2019-02-14T13:27:37.219Z,55.20
2019-02-14T13:30:08.827Z,55.50
2019-02-14T13:32:37.440Z,55.00
2019-02-14T13:35:06.505Z,54.60
2019-02-14T13:37:35.109Z,56.30
2019-02-14T13:40:04.251Z,54.80
2019-02-14T13:42:32.782Z,52.90
2019-02-14T13:45:01.309Z,55.70
2019-02-14T13:47:29.924Z,54.50
2019-02-14T13:49:58.452Z,53.40
2019-02-14T13:52:26.980Z,53.90
2019-02-14T13:54:55.527Z,53.60
2019-02-14T13:57:24.523Z,52.80
2019-02-14T13:59:53.051Z,54.50
2019-02-14T14:02:21.594Z,53.80
2019-02-14T14:04:50.130Z,55.60
2019-02-14T14:07:18.667Z,55.90
2019-02-14T14:09:47.282Z,54.40
2019-02-14T14:12:15.832Z,54.00
2019-02-14T14:14:44.354Z,53.50
2019-02-14T14:17:12.907Z,53.70
2019-02-14T14:19:41.442Z,54.10
2019-02-14T14:22:09.959Z,54.00
2019-02-14T14:24:38.507Z,53.70
2019-02-14T14:27:06.959Z,54.30
2019-02-14T14:29:35.511Z,54.90
2019-02-14T14:32:04.039Z,54.90
2019-02-14T14:34:32.567Z,53.70
2019-02-14T14:37:01.123Z,53.70
2019-02-14T14:39:29.649Z,53.60
2019-02-14T14:41:58.170Z,56.40
2019-02-14T14:44:28.368Z,56.90
2019-02-14T14:46:56.884Z,55.60
2019-02-14T14:49:25.417Z,55.90
2019-02-14T14:51:53.963Z,57.60
2019-02-14T14:54:22.491Z,57.80
2019-02-14T14:56:51.039Z,55.70
2019-02-14T14:59:19.559Z,54.30
2019-02-14T15:01:48.227Z,55.90
2019-02-14T15:04:16.773Z,57.40
2019-02-14T15:06:45.297Z,57.20
2019-02-14T15:09:13.832Z,58.70
2019-02-14T15:11:42.375Z,57.50
2019-02-14T15:14:10.913Z,58.60
2019-02-14T15:16:39.431Z,60.30
2019-02-14T15:19:07.970Z,61.90
2019-02-14T15:21:36.496Z,61.50
2019-02-14T15:24:05.039Z,61.70
2019-02-14T15:26:33.566Z,59.80
2019-02-14T15:29:02.126Z,59.80
2019-02-14T15:31:30.650Z,60.30
2019-02-14T15:33:59.195Z,59.90
2019-02-14T15:36:28.314Z,60.30
2019-02-14T15:38:56.963Z,60.40
2019-02-14T15:41:25.506Z,59.80
2019-02-14T15:43:54.040Z,61.90
2019-02-14T15:46:22.606Z,61.70
2019-02-14T15:48:51.147Z,62.60
2019-02-14T15:51:20.096Z,61.00
2019-02-14T15:53:48.740Z,59.80
2019-02-14T15:56:17.268Z,60.30
2019-02-14T15:58:45.830Z,60.10
2019-02-14T16:01:16.457Z,60.70
2019-02-14T16:03:44.599Z,60.50
2019-02-14T16:06:14.154Z,59.80
2019-02-14T16:08:44.553Z,60.90
2019-02-14T16:11:14.302Z,61.10
2019-02-14T16:13:43.003Z,63.30
2019-02-14T16:16:11.603Z,62.40
2019-02-14T16:18:40.060Z,62.10
2019-02-14T16:21:08.647Z,62.80
2019-02-14T16:23:37.199Z,63.20
2019-02-14T16:26:05.793Z,64.40
2019-02-14T16:28:36.012Z,66.30
2019-02-14T16:31:04.507Z,67.10
2019-02-14T16:33:33.029Z,67.70
2019-02-14T16:36:01.579Z,67.70
2019-02-14T16:38:30.031Z,68.10
2019-02-14T16:40:58.626Z,66.60
2019-02-14T16:43:27.190Z,67.00
2019-02-14T16:45:55.701Z,67.50
2019-02-14T16:48:24.218Z,68.40
2019-02-14T16:50:52.687Z,70.40
2019-02-14T16:53:21.139Z,72.70
2019-02-14T16:55:49.666Z,74.10
2019-02-14T16:58:18.227Z,74.90
2019-02-14T17:00:46.759Z,75.30
2019-02-14T17:03:15.219Z,76.10
2019-02-14T17:05:43.839Z,76.30
2019-02-14T17:08:12.868Z,76.00
2019-02-14T17:10:41.461Z,77.50
2019-02-14T17:13:10.008Z,77.80
2019-02-14T17:15:38.533Z,78.00
2019-02-14T17:18:07.102Z,79.00
2019-02-14T17:20:35.686Z,78.80
2019-02-14T17:23:04.145Z,78.40
2019-02-14T17:25:32.696Z,78.70
2019-02-14T17:28:01.271Z,79.50
2019-02-14T17:30:29.727Z,79.60
2019-02-14T17:32:58.415Z,79.20
2019-02-14T17:35:26.931Z,79.80
2019-02-14T17:37:55.464Z,80.90
2019-02-14T17:40:24.070Z,79.70
2019-02-14T17:42:52.699Z,81.10
2019-02-14T17:45:21.307Z,83.40
2019-02-14T17:47:49.848Z,83.50
2019-02-14T17:50:18.446Z,85.10
2019-02-14T17:52:46.966Z,84.90
2019-02-14T17:55:15.510Z,85.20
2019-02-14T17:57:43.999Z,85.20
2019-02-14T18:00:13.230Z,85.50
2019-02-14T18:02:41.776Z,87.00
2019-02-14T18:05:10.377Z,87.40
2019-02-14T18:07:38.895Z,90.10
2019-02-14T18:10:12.405Z,90.70
2019-02-14T18:12:40.923Z,93.80
2019-02-14T18:15:13.006Z,95.40
2019-02-14T18:17:41.550Z,95.90
2019-02-14T18:20:11.406Z,97.70
2019-02-14T18:22:41.435Z,97.80
2019-02-14T18:25:12.372Z,98.10
2019-02-14T18:27:40.949Z,98.60
2019-02-14T18:30:11.104Z,98.60
2019-02-14T18:32:39.652Z,98.90
2019-02-14T18:35:12.458Z,98.70
2019-02-14T18:37:41.060Z,98.90
2019-02-14T18:40:10.651Z,99.10
2019-02-14T18:42:49.223Z,99.30
2019-02-14T18:45:17.838Z,99.20
2019-02-14T18:47:46.361Z,98.20
2019-02-14T18:50:15.053Z,98.40
2019-02-14T18:52:43.606Z,99.00
2019-02-14T18:55:12.418Z,99.90
2019-02-14T18:57:40.934Z,99.90
2019-02-14T19:00:12.669Z,99.90
2019-02-14T19:02:41.192Z,99.90
2019-02-14T19:05:11.356Z,99.90
2019-02-14T19:07:39.902Z,99.90
2019-02-14T19:10:13.763Z,99.90
2019-02-14T19:12:42.293Z,99.90
2019-02-14T19:15:14.391Z,99.90
2019-02-14T19:17:44.376Z,99.90
2019-02-14T19:20:13.623Z,99.90
2019-02-14T19:22:42.725Z,99.90
2019-02-14T19:25:11.362Z,99.90
2019-02-14T19:27:39.903Z,99.90
2019-02-14T19:30:10.575Z,99.90
2019-02-14T19:32:39.249Z,99.90
2019-02-14T19:35:09.235Z,99.90
2019-02-14T19:37:37.753Z,99.90
2019-02-14T19:40:09.156Z,99.90
2019-02-14T19:42:37.791Z,99.90
2019-02-14T19:45:09.626Z,99.90
2019-02-14T19:47:38.235Z,99.90
2019-02-14T19:50:12.543Z,99.90
2019-02-14T19:52:41.953Z,99.90
2019-02-14T19:55:10.621Z,99.90
2019-02-14T19:57:39.180Z,99.90
2019-02-14T20:00:17.295Z,99.90
2019-02-14T20:02:45.844Z,99.90
2019-02-14T20:05:14.372Z,99.90
2019-02-14T20:07:42.908Z,99.90
2019-02-14T20:10:15.485Z,99.90
2019-02-14T20:12:44.174Z,99.90
2019-02-14T20:15:17.790Z,99.90
2019-02-14T20:17:46.415Z,99.90
2019-02-14T20:20:15.008Z,99.90
2019-02-14T20:22:43.628Z,99.90
2019-02-14T20:25:18.127Z,99.90
2019-02-14T20:27:46.691Z,99.90
2019-02-14T20:30:15.234Z,99.90
2019-02-14T20:32:43.758Z,99.90
2019-02-14T20:35:12.316Z,99.90
2019-02-14T20:37:40.867Z,99.90
2019-02-14T20:40:10.519Z,99.90
2019-02-14T20:42:39.210Z,99.90
2019-02-14T20:45:15.183Z,99.90
2019-02-14T20:47:43.767Z,99.90
2019-02-14T20:50:13.899Z,99.90
2019-02-14T20:52:42.430Z,99.90
2019-02-14T20:55:14.096Z,99.90
2019-02-14T20:57:42.687Z,99.90
2019-02-14T21:00:16.178Z,99.90
2019-02-14T21:02:44.728Z,99.90
2019-02-14T21:05:13.323Z,99.90
2019-02-14T21:07:41.927Z,99.90
2019-02-14T21:10:10.606Z,99.90
2019-02-14T21:12:39.131Z,99.90
2019-02-14T21:15:09.102Z,99.90
2019-02-14T21:17:37.642Z,99.90
2019-02-14T21:20:09.180Z,99.90
2019-02-14T21:22:37.805Z,99.90
2019-02-14T21:25:08.173Z,99.90
2019-02-14T21:27:36.783Z,99.90
2019-02-14T21:30:08.655Z,99.90
2019-02-14T21:32:37.194Z,99.90
2019-02-14T21:35:06.658Z,99.90
2019-02-14T21:37:35.286Z,99.90
2019-02-14T21:40:06.494Z,99.90
2019-02-14T21:42:35.009Z,99.90
2019-02-14T21:45:04.203Z,99.90
2019-02-14T21:47:32.802Z,99.90
2019-02-14T21:50:01.340Z,99.90
2019-02-14T21:52:29.907Z,99.90
2019-02-14T21:54:58.444Z,99.90
2019-02-14T21:57:27.036Z,99.90
2019-02-14T21:59:55.583Z,99.90
2019-02-14T22:02:24.118Z,99.90
2019-02-14T22:04:52.633Z,99.90
2019-02-14T22:07:21.189Z,99.90
2019-02-14T22:09:49.718Z,99.90
2019-02-14T22:12:37.139Z,99.90
2019-02-14T22:14:48.529Z,99.90
2019-02-14T22:17:17.063Z,99.90
2019-02-14T22:19:45.598Z,99.90
2019-02-14T22:22:14.282Z,99.90
2019-02-14T22:24:42.741Z,99.90
2019-02-14T22:27:11.263Z,99.90
2019-02-14T22:29:39.815Z,99.90
2019-02-14T22:32:08.348Z,99.90
2019-02-14T22:34:36.883Z,99.90
2019-02-14T22:37:05.500Z,99.90
2019-02-14T22:39:34.033Z,99.90
2019-02-14T22:42:02.588Z,99.90
2019-02-14T22:44:31.110Z,99.90
2019-02-14T22:46:59.656Z,99.90
2019-02-14T22:49:28.253Z,99.90
2019-02-14T22:51:56.810Z,99.90
2019-02-14T22:54:25.407Z,99.90
2019-02-14T22:56:53.934Z,99.90
2019-02-14T22:59:22.484Z,99.90
2019-02-14T23:01:51.477Z,99.90
2019-02-14T23:04:20.034Z,99.90
2019-02-14T23:06:48.591Z,99.90
2019-02-14T23:09:17.287Z,99.90
2019-02-14T23:11:45.912Z,99.90
2019-02-14T23:14:14.440Z,99.90
2019-02-14T23:16:42.966Z,99.90
2019-02-14T23:19:11.519Z,99.90
2019-02-14T23:21:40.038Z,99.90
2019-02-14T23:24:08.569Z,99.90
2019-02-14T23:26:37.122Z,99.90
2019-02-14T23:29:05.643Z,99.90
2019-02-14T23:31:34.103Z,99.90
2019-02-14T23:34:02.652Z,99.90
2019-02-14T23:36:31.185Z,99.90
2019-02-14T23:38:59.707Z,99.90
2019-02-14T23:41:28.256Z,99.90
2019-02-14T23:43:56.775Z,99.90
2019-02-14T23:46:25.232Z,99.90
2019-02-14T23:48:53.782Z,99.90
2019-02-14T23:51:22.313Z,99.90
2019-02-14T23:53:50.858Z,99.90
2019-02-14T23:56:19.311Z,99.90
2019-02-14T23:58:47.839Z,99.90
